Time;durP1;ratioP1;P1;durP2;ratioP2;P2;SDS_P1;SDS_P2;PMS_P1;PMS_P2;Temp;Humidity;BMP_temperature;BMP_pressure;BME280_temperature;BME280_humidity;BME280_pressure;Samples;Min_cycle;Max_cycle;Signal;HPM_P1;HPM_P2
2024/01/07 00:00:07;;;;;;;4.77;2.37;;;0.40;99.90;;;;;;5090442;28;20641;-82
2024/01/07 00:02:34;;;;;;;2.33;2.13;;;0.40;99.90;;;;;;5089938;28;20312;-85
2024/01/07 00:05:03;;;;;;;2.47;2.07;;;0.40;99.90;;;;;;5089918;28;20245;-83
2024/01/07 00:07:30;;;;;;;2.97;2.37;;;0.40;99.90;;;;;;5089716;28;20252;-82
2024/01/07 00:09:57;;;;;;;3.93;2.57;;;0.40;99.90;;;;;;5088700;28;20269;-82
2024/01/07 00:12:24;;;;;;;5.07;2.37;;;0.30;99.90;;;;;;5089236;28;20209;-82
2024/01/07 00:14:51;;;;;;;2.87;2.57;;;0.30;99.90;;;;;;5089780;28;20204;-82
2024/01/07 00:17:18;;;;;;;4.20;2.60;;;0.30;99.90;;;;;;5088836;28;20234;-81
2024/01/07 00:19:45;;;;;;;3.53;2.77;;;0.30;99.90;;;;;;5088911;28;20301;-81
2024/01/07 00:22:13;;;;;;;4.07;2.57;;;0.30;99.90;;;;;;5089093;28;20226;-82
2024/01/07 00:24:40;;;;;;;3.23;2.30;;;0.30;99.90;;;;;;5088296;28;20293;-82
2024/01/07 00:27:08;;;;;;;4.73;2.90;;;0.30;99.90;;;;;;5087830;28;20698;-81
2024/01/07 00:29:35;;;;;;;2.77;2.40;;;0.20;99.90;;;;;;5087016;28;20918;-82
2024/01/07 00:32:02;;;;;;;2.90;2.60;;;0.20;99.90;;;;;;5078573;28;20241;-82
2024/01/07 00:34:29;;;;;;;4.30;2.60;;;0.20;99.90;;;;;;5088535;28;20321;-81
2024/01/07 00:36:56;;;;;;;4.33;2.60;;;0.20;99.90;;;;;;5088838;28;20235;-82
2024/01/07 00:39:24;;;;;;;2.37;2.10;;;0.20;99.90;;;;;;5088785;28;20302;-81
2024/01/07 00:41:51;;;;;;;3.67;2.40;;;0.20;99.90;;;;;;5088577;28;20302;-82
2024/01/07 00:44:18;;;;;;;5.53;2.53;;;0.20;99.90;;;;;;5088292;28;20238;-77
2024/01/07 00:46:44;;;;;;;3.60;2.37;;;0.10;99.90;;;;;;5088377;28;20195;-78
2024/01/07 00:49:11;;;;;;;3.23;2.53;;;0.10;99.90;;;;;;5088380;28;20249;-78
2024/01/07 00:51:37;;;;;;;3.07;2.60;;;0.10;99.90;;;;;;5088547;28;20331;-78
2024/01/07 00:54:04;;;;;;;4.70;2.90;;;0.10;99.90;;;;;;5088324;28;20219;-78
2024/01/07 00:56:32;;;;;;;2.50;2.30;;;0.10;99.90;;;;;;5087951;28;20302;-79
2024/01/07 00:58:59;;;;;;;2.43;2.23;;;0.10;99.90;;;;;;5087848;28;20781;-81
2024/01/07 01:01:26;;;;;;;2.73;2.20;;;0.10;99.90;;;;;;5088248;28;20774;-78
2024/01/07 01:03:53;;;;;;;2.60;2.40;;;0.10;99.90;;;;;;5087654;28;20222;-79
2024/01/07 01:06:20;;;;;;;2.33;2.10;;;0.00;99.90;;;;;;5087923;28;20209;-78
2024/01/07 01:08:47;;;;;;;2.80;1.90;;;0.10;99.90;;;;;;5087688;28;20720;-78
2024/01/07 01:11:14;;;;;;;1.87;1.77;;;0.10;99.90;;;;;;5088066;28;20207;-77
2024/01/07 01:13:42;;;;;;;2.63;1.90;;;0.00;99.90;;;;;;5088046;28;20297;-76
2024/01/07 01:16:09;;;;;;;3.63;2.30;;;0.00;99.90;;;;;;5087845;28;20302;-77
2024/01/07 01:18:36;;;;;;;2.10;1.90;;;0.00;99.90;;;;;;5087918;28;20207;-78
2024/01/07 01:21:03;;;;;;;1.93;1.70;;;0.00;99.90;;;;;;5087819;28;20238;-78
2024/01/07 01:23:29;;;;;;;2.23;2.03;;;0.00;99.90;;;;;;5087376;28;20276;-77
2024/01/07 01:25:56;;;;;;;1.70;1.60;;;-0.10;99.90;;;;;;5087949;28;20284;-79
2024/01/07 01:28:23;;;;;;;1.77;1.67;;;-0.10;99.90;;;;;;5087284;28;20207;-78
2024/01/07 01:30:51;;;;;;;2.30;2.07;;;-0.20;99.90;;;;;;5086646;28;20234;-78
2024/01/07 01:33:18;;;;;;;1.70;1.60;;;-0.10;99.90;;;;;;5087242;28;21069;-79
2024/01/07 01:35:45;;;;;;;2.47;1.90;;;-0.10;99.90;;;;;;5087336;28;21056;-78
2024/01/07 01:38:12;;;;;;;1.97;1.67;;;-0.20;99.90;;;;;;5087665;28;20633;-78
2024/01/07 01:40:39;;;;;;;2.87;1.90;;;-0.20;99.90;;;;;;5087417;28;20335;-78
2024/01/07 01:43:06;;;;;;;1.80;1.70;;;-0.20;99.90;;;;;;5087534;28;20325;-78
2024/01/07 01:45:33;;;;;;;1.70;1.60;;;-0.20;99.90;;;;;;5087224;28;20218;-78
2024/01/07 01:48:02;;;;;;;2.23;1.60;;;-0.20;99.90;;;;;;5087798;28;20206;-78
2024/01/07 01:50:28;;;;;;;1.90;1.73;;;-0.20;99.90;;;;;;5086940;28;20282;-79
2024/01/07 01:52:56;;;;;;;1.60;1.50;;;-0.20;99.90;;;;;;5086890;28;20848;-78
2024/01/07 01:55:23;;;;;;;2.93;1.93;;;-0.20;99.90;;;;;;5087482;28;20257;-79
2024/01/07 01:57:51;;;;;;;1.60;1.50;;;-0.20;99.90;;;;;;5086915;28;20317;-78
2024/01/07 02:00:19;;;;;;;1.73;1.60;;;-0.30;99.90;;;;;;5087401;28;20302;-79
2024/01/07 02:02:45;;;;;;;2.43;2.07;;;-0.30;99.90;;;;;;5086794;28;20317;-79
2024/01/07 02:05:14;;;;;;;1.70;1.60;;;-0.40;99.90;;;;;;5085835;28;20289;-78
2024/01/07 02:07:44;;;;;;;1.90;1.70;;;-0.40;99.90;;;;;;5087219;28;20211;-78
2024/01/07 02:10:12;;;;;;;2.60;1.50;;;-0.40;99.90;;;;;;5086574;28;20330;-79
2024/01/07 02:12:39;;;;;;;1.80;1.70;;;-0.40;99.90;;;;;;5087067;28;21036;-79
2024/01/07 02:15:07;;;;;;;1.80;1.70;;;-0.40;99.90;;;;;;5087679;28;20330;-79
2024/01/07 02:17:33;;;;;;;1.53;1.43;;;-0.50;99.90;;;;;;5072327;28;20557;-78
2024/01/07 02:20:00;;;;;;;1.63;1.53;;;-0.40;99.90;;;;;;5067182;28;20222;-80
2024/01/07 02:22:28;;;;;;;1.80;1.70;;;-0.40;99.90;;;;;;5067077;28;20386;-78
2024/01/07 02:24:57;;;;;;;1.60;1.50;;;-0.40;99.90;;;;;;5066628;28;20299;-77
2024/01/07 02:27:24;;;;;;;2.00;1.73;;;-0.50;99.90;;;;;;5066862;28;20254;-78
2024/01/07 02:29:50;;;;;;;3.07;1.87;;;-0.50;99.90;;;;;;5070706;28;20600;-77
2024/01/07 02:32:17;;;;;;;1.63;1.53;;;-0.50;99.90;;;;;;5086319;28;20203;-77
2024/01/07 02:34:46;;;;;;;3.23;1.83;;;-0.50;99.90;;;;;;5087102;28;20301;-78
2024/01/07 02:37:13;;;;;;;1.97;1.73;;;-0.40;99.90;;;;;;5086733;28;20669;-78
2024/01/07 02:39:40;;;;;;;2.27;1.60;;;-0.50;99.90;;;;;;5086717;28;20213;-78
2024/01/07 02:42:09;;;;;;;2.73;2.00;;;-0.50;99.90;;;;;;5089631;28;20242;-80
2024/01/07 02:44:35;;;;;;;2.03;1.47;;;-0.60;99.90;;;;;;5090610;28;20277;-81
2024/01/07 02:47:02;;;;;;;1.77;1.67;;;-0.60;99.90;;;;;;5090839;28;20211;-81
2024/01/07 02:49:29;;;;;;;1.80;1.70;;;-0.60;99.90;;;;;;5090455;28;20689;-81
2024/01/07 02:51:56;;;;;;;1.60;1.50;;;-0.60;99.90;;;;;;5090690;28;20231;-81
2024/01/07 02:54:23;;;;;;;1.50;1.40;;;-0.70;99.90;;;;;;5090660;28;20631;-80
2024/01/07 02:56:50;;;;;;;1.97;1.27;;;-0.70;99.90;;;;;;5090246;28;20287;-81
2024/01/07 02:59:18;;;;;;;1.83;1.60;;;-0.70;99.90;;;;;;5090091;28;20238;-81
2024/01/07 03:01:45;;;;;;;1.67;1.53;;;-0.70;99.90;;;;;;5090737;28;20253;-81
2024/01/07 03:04:14;;;;;;;1.80;1.70;;;-0.70;99.90;;;;;;5090259;28;20334;-80
2024/01/07 03:06:41;;;;;;;1.30;1.20;;;-0.70;99.90;;;;;;5090240;28;20202;-80
2024/01/07 03:09:10;;;;;;;1.93;1.50;;;-0.80;99.90;;;;;;5089973;28;20325;-80
2024/01/07 03:11:41;;;;;;;2.00;1.50;;;-0.80;99.90;;;;;;5089983;28;20986;-80
2024/01/07 03:14:08;;;;;;;1.37;1.27;;;-0.90;99.90;;;;;;5090032;28;20202;-80
2024/01/07 03:16:36;;;;;;;2.53;1.50;;;-0.80;99.90;;;;;;5089792;28;20206;-80
2024/01/07 03:19:04;;;;;;;1.30;1.20;;;-0.90;99.90;;;;;;5089847;28;20203;-80
2024/01/07 03:21:31;;;;;;;1.33;1.10;;;-0.90;99.90;;;;;;5089742;28;20222;-79
2024/01/07 03:23:58;;;;;;;1.63;1.50;;;-1.00;99.90;;;;;;5090011;28;20317;-80
2024/01/07 03:26:30;;;;;;;1.30;1.20;;;-1.00;99.90;;;;;;5089920;28;20299;-80
2024/01/07 03:28:59;;;;;;;1.37;1.27;;;-1.00;99.90;;;;;;5090070;28;20218;-81
2024/01/07 03:31:26;;;;;;;1.80;1.10;;;-1.00;99.90;;;;;;5089772;28;20203;-81
2024/01/07 03:33:55;;;;;;;1.70;1.30;;;-1.10;99.90;;;;;;5090111;28;20245;-79
2024/01/07 03:36:22;;;;;;;1.50;1.40;;;-1.10;99.90;;;;;;5088589;28;20202;-79
2024/01/07 03:38:49;;;;;;;1.03;1.00;;;-1.20;99.90;;;;;;5075804;28;20198;-80
2024/01/07 03:41:18;;;;;;;1.13;1.03;;;-1.20;99.90;;;;;;5089318;28;20294;-81
2024/01/07 03:43:45;;;;;;;1.10;1.00;;;-1.10;99.90;;;;;;5089307;28;20237;-81
2024/01/07 03:46:12;;;;;;;1.00;1.00;;;-1.10;99.90;;;;;;5089041;28;20209;-83
2024/01/07 03:48:39;;;;;;;1.23;1.10;;;-1.10;99.90;;;;;;5089652;28;20199;-82
2024/01/07 03:51:07;;;;;;;1.70;1.20;;;-1.10;99.90;;;;;;5089322;28;20205;-82
2024/01/07 03:53:34;;;;;;;1.73;1.07;;;-1.10;99.90;;;;;;5088119;28;20263;-82
2024/01/07 03:56:01;;;;;;;1.50;1.40;;;-1.20;99.90;;;;;;5088848;28;20219;-82
2024/01/07 03:58:28;;;;;;;1.30;1.20;;;-1.20;99.90;;;;;;5089001;28;20884;-82
2024/01/07 04:00:55;;;;;;;1.03;1.03;;;-1.20;99.90;;;;;;5089659;28;20771;-81
2024/01/07 04:03:22;;;;;;;1.40;1.30;;;-1.20;99.90;;;;;;5089407;28;20319;-81
2024/01/07 04:05:49;;;;;;;1.00;1.00;;;-1.30;99.90;;;;;;5088974;28;20210;-83
2024/01/07 04:08:17;;;;;;;2.03;1.20;;;-1.20;99.90;;;;;;5088432;28;20249;-83
2024/01/07 04:10:44;;;;;;;1.33;1.23;;;-1.20;99.90;;;;;;5089260;28;20274;-82
2024/01/07 04:13:11;;;;;;;1.47;1.30;;;-1.30;99.90;;;;;;5088794;28;20234;-85
2024/01/07 04:15:38;;;;;;;1.23;1.13;;;-1.30;99.90;;;;;;5089283;28;20238;-82
2024/01/07 04:18:05;;;;;;;1.53;1.30;;;-1.20;99.90;;;;;;5089237;28;20211;-82
2024/01/07 04:20:32;;;;;;;1.27;1.13;;;-1.20;99.90;;;;;;5089182;28;20202;-82
2024/01/07 04:22:59;;;;;;;1.40;1.30;;;-1.30;99.90;;;;;;5088698;28;20245;-82
2024/01/07 04:25:27;;;;;;;1.37;1.10;;;-1.30;99.90;;;;;;5088661;28;20247;-82
2024/01/07 04:27:54;;;;;;;1.60;1.50;;;-1.30;99.90;;;;;;5089111;28;20297;-82
2024/01/07 04:30:21;;;;;;;1.60;1.50;;;-1.30;99.90;;;;;;5080770;28;20299;-80
2024/01/07 04:32:48;;;;;;;1.33;1.23;;;-1.30;99.90;;;;;;5068586;28;20211;-80
2024/01/07 04:35:15;;;;;;;1.30;1.20;;;-1.40;99.90;;;;;;5068624;28;20290;-81
2024/01/07 04:37:43;;;;;;;1.37;1.27;;;-1.30;99.90;;;;;;5068107;28;20207;-81
2024/01/07 04:40:11;;;;;;;1.10;1.00;;;-1.30;99.90;;;;;;5073545;28;20632;-81
2024/01/07 04:42:39;;;;;;;1.77;1.50;;;-1.40;99.90;;;;;;5088303;28;20212;-81
2024/01/07 04:45:07;;;;;;;1.50;1.40;;;-1.30;99.90;;;;;;5088829;28;20333;-80
2024/01/07 04:47:35;;;;;;;0.90;0.90;;;-1.30;99.90;;;;;;5088155;28;21045;-80
2024/01/07 04:50:02;;;;;;;1.37;1.27;;;-1.40;99.90;;;;;;5088401;28;20217;-80
2024/01/07 04:52:29;;;;;;;1.20;1.10;;;-1.40;99.90;;;;;;5088046;28;20230;-80
2024/01/07 04:54:56;;;;;;;1.20;1.10;;;-1.40;99.90;;;;;;5088162;28;20256;-80
2024/01/07 04:57:24;;;;;;;1.33;1.23;;;-1.50;99.90;;;;;;5087969;28;20254;-78
2024/01/07 04:59:52;;;;;;;1.50;1.00;;;-1.40;99.90;;;;;;5088143;28;20297;-79
2024/01/07 05:02:19;;;;;;;1.37;1.27;;;-1.50;99.90;;;;;;5088158;28;20206;-78
2024/01/07 05:04:46;;;;;;;1.47;1.33;;;-1.50;99.90;;;;;;5086890;28;20771;-78
2024/01/07 05:07:13;;;;;;;1.17;1.07;;;-1.40;99.90;;;;;;5087919;28;20237;-78
2024/01/07 05:09:40;;;;;;;1.60;1.13;;;-1.50;99.90;;;;;;5088026;28;20269;-79
2024/01/07 05:12:07;;;;;;;1.77;1.27;;;-1.50;99.90;;;;;;5087976;28;20286;-78
2024/01/07 05:14:34;;;;;;;1.37;1.20;;;-1.50;99.90;;;;;;5088446;28;20214;-77
2024/01/07 05:17:03;;;;;;;1.50;1.40;;;-1.40;99.90;;;;;;5088004;28;20206;-77
2024/01/07 05:19:29;;;;;;;1.33;1.23;;;-1.50;99.90;;;;;;5087927;28;20673;-77
2024/01/07 05:21:56;;;;;;;1.83;1.50;;;-1.40;99.90;;;;;;5087942;28;20242;-77
2024/01/07 05:24:23;;;;;;;1.27;1.17;;;-1.40;99.90;;;;;;5087776;28;20233;-77
2024/01/07 05:26:50;;;;;;;1.90;1.40;;;-1.40;99.90;;;;;;5087929;28;20206;-77
2024/01/07 05:29:17;;;;;;;1.60;1.50;;;-1.30;99.90;;;;;;5087926;28;20285;-79
2024/01/07 05:31:44;;;;;;;1.50;1.40;;;-1.30;99.90;;;;;;5087320;28;20198;-80
2024/01/07 05:34:14;;;;;;;1.83;1.70;;;-1.30;99.90;;;;;;5087548;28;20307;-80
2024/01/07 05:36:41;;;;;;;2.27;1.50;;;-1.20;99.90;;;;;;5088000;28;20195;-80
2024/01/07 05:39:08;;;;;;;1.70;1.57;;;-1.20;99.90;;;;;;5087388;28;20202;-80
2024/01/07 05:41:37;;;;;;;1.80;1.53;;;-1.10;99.90;;;;;;5087370;28;20704;-81
2024/01/07 05:44:04;;;;;;;1.33;1.23;;;-1.10;99.90;;;;;;5087740;28;20299;-81
2024/01/07 05:46:31;;;;;;;1.40;1.30;;;-1.00;99.90;;;;;;5087203;28;20220;-81
2024/01/07 05:48:58;;;;;;;1.57;1.47;;;-1.00;99.90;;;;;;5087697;28;20633;-80
2024/01/07 05:51:26;;;;;;;2.03;1.60;;;-1.10;99.90;;;;;;5087297;28;20663;-80
2024/01/07 05:53:53;;;;;;;1.70;1.60;;;-1.00;99.90;;;;;;5087581;28;20245;-78
2024/01/07 05:56:20;;;;;;;3.10;1.40;;;-1.00;99.90;;;;;;5087744;28;20305;-80
2024/01/07 05:58:47;;;;;;;1.40;1.30;;;-1.00;99.90;;;;;;5087470;28;20290;-79
2024/01/07 06:01:19;;;;;;;1.37;1.27;;;-1.10;99.90;;;;;;5086948;28;20214;-79
2024/01/07 06:03:47;;;;;;;1.43;1.33;;;-1.00;99.90;;;;;;5087587;28;20265;-79
2024/01/07 06:06:14;;;;;;;2.27;1.43;;;-1.00;99.90;;;;;;5087502;28;20206;-80
2024/01/07 06:08:42;;;;;;;2.03;1.13;;;-1.00;99.90;;;;;;5086660;28;20727;-80
2024/01/07 06:11:10;;;;;;;1.67;1.57;;;-1.00;99.90;;;;;;5087873;28;20229;-79
2024/01/07 06:13:37;;;;;;;1.40;1.30;;;-1.00;99.90;;;;;;5087744;28;20295;-79
2024/01/07 06:16:07;;;;;;;1.93;1.33;;;-1.00;99.90;;;;;;5088009;28;20298;-78
2024/01/07 06:18:34;;;;;;;1.17;1.10;;;-1.00;99.90;;;;;;5091268;28;20205;-76
2024/01/07 06:21:01;;;;;;;1.30;1.20;;;-0.90;99.90;;;;;;5091522;28;20295;-76
2024/01/07 06:23:27;;;;;;;1.53;1.40;;;-0.90;99.90;;;;;;5081019;28;21136;-76
2024/01/07 06:25:56;;;;;;;1.27;1.17;;;-0.90;99.90;;;;;;5070621;28;20298;-76
2024/01/07 06:28:22;;;;;;;1.40;1.20;;;-0.90;99.90;;;;;;5070688;28;20592;-75
2024/01/07 06:30:49;;;;;;;1.30;1.20;;;-0.90;99.90;;;;;;5070942;28;20262;-76
2024/01/07 06:33:16;;;;;;;1.83;1.40;;;-0.90;99.90;;;;;;5070496;28;20248;-76
2024/01/07 06:35:43;;;;;;;1.43;1.27;;;-1.00;99.90;;;;;;5070821;28;20298;-76
2024/01/07 06:38:10;;;;;;;1.40;1.30;;;-1.00;99.90;;;;;;5070320;28;20211;-76
2024/01/07 06:40:37;;;;;;;1.93;1.70;;;-0.90;99.90;;;;;;5089959;28;20256;-79
2024/01/07 06:43:06;;;;;;;1.20;1.20;;;-1.00;99.90;;;;;;5085957;28;20246;-79
2024/01/07 06:45:33;;;;;;;1.33;1.23;;;-1.00;99.90;;;;;;5090629;28;20242;-79
2024/01/07 06:48:00;;;;;;;1.53;1.40;;;-1.00;99.90;;;;;;5091127;28;20203;-79
2024/01/07 06:50:27;;;;;;;1.33;1.23;;;-0.90;99.90;;;;;;5090725;28;20199;-79
2024/01/07 06:52:54;;;;;;;2.00;1.43;;;-0.90;99.90;;;;;;5090466;28;20301;-80
2024/01/07 06:55:21;;;;;;;2.07;1.70;;;-0.90;99.90;;;;;;5090615;28;20308;-80
2024/01/07 06:57:48;;;;;;;1.50;1.40;;;-0.90;99.90;;;;;;5090560;28;20660;-79
2024/01/07 07:00:17;;;;;;;1.97;1.63;;;-0.90;99.90;;;;;;5090519;28;20295;-80
2024/01/07 07:02:44;;;;;;;2.87;1.50;;;-0.90;99.90;;;;;;5090618;28;20210;-80
2024/01/07 07:05:11;;;;;;;1.40;1.30;;;-0.90;99.90;;;;;;5090157;28;20337;-80
2024/01/07 07:07:38;;;;;;;1.80;1.70;;;-0.80;99.90;;;;;;5090326;28;20203;-79
2024/01/07 07:10:05;;;;;;;1.77;1.67;;;-0.80;99.90;;;;;;5089887;28;20258;-78
2024/01/07 07:12:32;;;;;;;1.67;1.57;;;-0.80;99.90;;;;;;5089691;28;20222;-78
2024/01/07 07:14:59;;;;;;;1.80;1.70;;;-0.80;99.90;;;;;;5090024;28;20507;-78
2024/01/07 07:17:27;;;;;;;1.50;1.40;;;-0.80;99.90;;;;;;5090202;28;20629;-78
2024/01/07 07:19:54;;;;;;;1.87;1.67;;;-0.70;99.90;;;;;;5090301;28;20297;-77
2024/01/07 07:22:21;;;;;;;1.80;1.70;;;-0.60;99.90;;;;;;5090065;28;20313;-78
2024/01/07 07:24:48;;;;;;;2.03;1.70;;;-0.60;99.90;;;;;;5089919;28;20223;-77
2024/01/07 07:27:15;;;;;;;1.70;1.60;;;-0.60;99.90;;;;;;5089724;28;20238;-77
2024/01/07 07:29:41;;;;;;;3.67;1.80;;;-0.70;99.90;;;;;;5089159;28;20230;-77
2024/01/07 07:32:08;;;;;;;1.77;1.60;;;-0.60;99.90;;;;;;5090044;28;20282;-77
2024/01/07 07:34:37;;;;;;;1.90;1.73;;;-0.60;99.90;;;;;;5090292;28;20361;-78
2024/01/07 07:37:04;;;;;;;1.80;1.70;;;-0.60;99.90;;;;;;5089498;28;20297;-80
2024/01/07 07:39:31;;;;;;;1.70;1.60;;;-0.60;99.90;;;;;;5088967;28;20211;-79
2024/01/07 07:41:58;;;;;;;1.50;1.40;;;-0.60;99.90;;;;;;5090129;28;20298;-81
2024/01/07 07:44:24;;;;;;;1.67;1.57;;;-0.60;99.90;;;;;;5089263;28;20549;-80
2024/01/07 07:46:51;;;;;;;1.70;1.60;;;-0.70;99.90;;;;;;5087066;28;20290;-78
2024/01/07 07:49:18;;;;;;;1.70;1.47;;;-0.70;99.90;;;;;;5091262;28;20610;-77
2024/01/07 07:51:47;;;;;;;1.73;1.63;;;-0.70;99.90;;;;;;5090306;28;20226;-76
2024/01/07 07:54:14;;;;;;;2.20;1.70;;;-0.70;99.90;;;;;;5086416;28;20382;-77
2024/01/07 07:56:41;;;;;;;1.77;1.67;;;-0.70;99.90;;;;;;5088800;28;20580;-77
2024/01/07 07:59:08;;;;;;;1.87;1.60;;;-0.70;99.90;;;;;;5089328;28;20195;-80
2024/01/07 08:01:35;;;;;;;1.40;1.30;;;-0.70;99.90;;;;;;5089450;28;20201;-80
2024/01/07 08:04:04;;;;;;;1.67;1.57;;;-0.60;99.90;;;;;;5089438;28;20226;-78
2024/01/07 08:06:31;;;;;;;1.90;1.80;;;-0.70;99.90;;;;;;5088866;28;20265;-77
2024/01/07 08:09:00;;;;;;;1.40;1.30;;;-0.60;99.90;;;;;;5088718;28;20237;-77
2024/01/07 08:11:26;;;;;;;1.53;1.43;;;-0.60;99.90;;;;;;5088990;28;20204;-78
2024/01/07 08:13:53;;;;;;;2.80;1.97;;;-0.70;99.90;;;;;;5089334;28;20744;-77
2024/01/07 08:16:20;;;;;;;1.80;1.47;;;-0.60;99.90;;;;;;5089098;28;20304;-79
2024/01/07 08:18:47;;;;;;;1.67;1.57;;;-0.60;99.90;;;;;;5089533;28;20232;-79
2024/01/07 08:21:14;;;;;;;1.87;1.77;;;-0.60;99.90;;;;;;5088907;28;20249;-78
2024/01/07 08:23:42;;;;;;;2.00;1.80;;;-0.60;99.90;;;;;;5088798;28;20242;-81
2024/01/07 08:26:10;;;;;;;1.83;1.67;;;-0.50;99.90;;;;;;5089427;28;20311;-80
2024/01/07 08:28:37;;;;;;;2.83;1.80;;;-0.50;99.90;;;;;;5089053;28;20307;-81
2024/01/07 08:31:04;;;;;;;1.60;1.30;;;-0.50;99.90;;;;;;5088850;28;20198;-81
2024/01/07 08:33:33;;;;;;;1.90;1.80;;;-0.50;99.90;;;;;;5089008;28;20291;-80
2024/01/07 08:36:00;;;;;;;1.67;1.57;;;-0.50;99.90;;;;;;5088984;28;20221;-81
2024/01/07 08:38:26;;;;;;;2.43;1.80;;;-0.50;99.90;;;;;;5088748;28;20302;-78
2024/01/07 08:40:53;;;;;;;1.60;1.50;;;-0.50;99.90;;;;;;5088819;28;20252;-78
2024/01/07 08:43:21;;;;;;;2.13;1.93;;;-0.50;99.90;;;;;;5077840;28;20290;-78
2024/01/07 08:45:48;;;;;;;1.97;1.87;;;-0.40;99.90;;;;;;5078311;28;20317;-78
2024/01/07 08:48:15;;;;;;;2.27;1.90;;;-0.50;99.90;;;;;;5088683;28;20202;-78
2024/01/07 08:50:42;;;;;;;1.87;1.77;;;-0.50;99.90;;;;;;5088059;28;20213;-77
2024/01/07 08:53:09;;;;;;;1.77;1.53;;;-0.40;99.90;;;;;;5088320;28;20773;-77
2024/01/07 08:55:36;;;;;;;2.30;1.67;;;-0.40;99.90;;;;;;5088021;28;20226;-79
2024/01/07 08:58:03;;;;;;;1.77;1.67;;;-0.40;99.90;;;;;;5088391;28;20305;-80
2024/01/07 09:00:31;;;;;;;2.50;1.87;;;-0.40;99.90;;;;;;5088106;28;20301;-81
2024/01/07 09:02:58;;;;;;;2.00;1.80;;;-0.30;99.90;;;;;;5088502;28;20290;-77
2024/01/07 09:05:25;;;;;;;2.03;1.80;;;-0.30;99.90;;;;;;5088145;28;20317;-81
2024/01/07 09:07:52;;;;;;;2.03;1.83;;;-0.30;99.90;;;;;;5087554;28;20298;-78
2024/01/07 09:10:20;;;;;;;2.17;1.87;;;-0.30;99.90;;;;;;5087812;28;20257;-80
2024/01/07 09:12:47;;;;;;;2.50;2.30;;;-0.30;99.90;;;;;;5088302;28;20206;-81
2024/01/07 09:15:14;;;;;;;2.77;2.50;;;-0.20;99.90;;;;;;5088089;28;20217;-81
2024/01/07 09:17:42;;;;;;;2.33;2.13;;;-0.20;99.90;;;;;;5087652;28;20290;-80
2024/01/07 09:20:11;;;;;;;3.57;2.30;;;-0.20;99.90;;;;;;5087880;28;20289;-79
2024/01/07 09:22:38;;;;;;;3.40;2.90;;;-0.20;99.90;;;;;;5087630;28;20294;-78
2024/01/07 09:25:06;;;;;;;3.20;2.50;;;-0.20;99.90;;;;;;5087398;28;20246;-78
2024/01/07 09:27:34;;;;;;;3.90;2.20;;;-0.10;99.90;;;;;;5084758;28;20217;-78
2024/01/07 09:30:01;;;;;;;2.60;2.20;;;-0.10;99.90;;;;;;5087283;28;20281;-81
2024/01/07 09:32:28;;;;;;;2.43;2.20;;;-0.10;99.90;;;;;;5087335;28;20234;-81
2024/01/07 09:34:56;;;;;;;2.33;2.13;;;-0.10;99.90;;;;;;5087773;28;20305;-80
2024/01/07 09:37:23;;;;;;;2.30;2.10;;;-0.10;99.90;;;;;;5087301;28;20297;-81
2024/01/07 09:39:50;;;;;;;3.10;2.33;;;-0.10;99.90;;;;;;5087166;28;20325;-78
2024/01/07 09:42:19;;;;;;;2.50;2.30;;;-0.10;99.90;;;;;;5087545;28;20207;-79
2024/01/07 09:44:46;;;;;;;2.63;2.43;;;-0.30;99.90;;;;;;5078823;28;20240;-78
2024/01/07 09:47:15;;;;;;;3.60;2.60;;;-0.10;99.90;;;;;;5078314;28;20706;-77
2024/01/07 09:49:42;;;;;;;3.03;2.60;;;-0.10;99.90;;;;;;5082881;28;20222;-78
2024/01/07 09:52:12;;;;;;;2.53;2.33;;;-0.10;99.90;;;;;;5085262;28;20211;-78
2024/01/07 09:54:40;;;;;;;3.03;2.73;;;-0.10;99.90;;;;;;5086926;28;20461;-78
2024/01/07 09:57:08;;;;;;;4.13;3.10;;;-0.10;99.90;;;;;;5087104;28;20293;-78
2024/01/07 09:59:36;;;;;;;4.53;2.97;;;-0.10;99.90;;;;;;5087035;28;20207;-78
2024/01/07 10:02:03;;;;;;;2.97;2.53;;;-0.10;99.90;;;;;;5086328;28;20761;-78
2024/01/07 10:04:31;;;;;;;3.13;2.80;;;-0.10;99.90;;;;;;5086858;28;20634;-78
2024/01/07 10:06:58;;;;;;;3.60;2.90;;;0.00;99.90;;;;;;5086705;28;20245;-78
2024/01/07 10:09:34;;;;;;;3.83;2.87;;;0.00;99.90;;;;;;5086045;28;20680;-78
2024/01/07 10:12:02;;;;;;;3.00;2.70;;;0.00;99.90;;;;;;5086898;28;20202;-78
2024/01/07 10:14:30;;;;;;;3.33;3.00;;;0.00;99.90;;;;;;5086639;28;20206;-78
2024/01/07 10:16:58;;;;;;;3.03;2.80;;;0.10;99.90;;;;;;5086538;28;20285;-77
2024/01/07 10:19:25;;;;;;;3.20;2.67;;;0.10;99.90;;;;;;5088252;28;20203;-77
2024/01/07 10:22:12;;;;;;;3.07;2.77;;;0.10;99.90;;;;;;5085729;28;20214;-77
2024/01/07 10:24:43;;;;;;;3.30;2.67;;;0.10;99.90;;;;;;5086250;28;20297;-78
2024/01/07 10:27:10;;;;;;;3.43;3.10;;;0.10;99.90;;;;;;5086259;28;20311;-78
2024/01/07 10:29:38;;;;;;;2.70;2.50;;;0.10;99.90;;;;;;5086153;28;20210;-78
2024/01/07 10:32:06;;;;;;;3.00;2.73;;;0.20;99.90;;;;;;5085795;28;21037;-79
2024/01/07 10:34:34;;;;;;;3.20;2.63;;;0.20;99.90;;;;;;5085575;28;20313;-78
2024/01/07 10:37:03;;;;;;;3.13;2.60;;;0.20;99.90;;;;;;5066230;28;20242;-78
2024/01/07 10:39:30;;;;;;;3.07;2.77;;;0.20;99.90;;;;;;5065430;28;20297;-78
2024/01/07 10:41:59;;;;;;;3.13;2.87;;;0.20;99.90;;;;;;5069071;28;20267;-78
2024/01/07 10:44:30;;;;;;;2.50;2.40;;;0.20;99.90;;;;;;5085088;28;20627;-78
2024/01/07 10:46:58;;;;;;;3.47;3.10;;;0.20;99.90;;;;;;5085989;28;20235;-78
2024/01/07 10:49:26;;;;;;;3.77;2.70;;;0.20;99.90;;;;;;5085535;28;20209;-78
2024/01/07 10:52:04;;;;;;;3.00;2.70;;;0.20;99.90;;;;;;5085706;28;20242;-78
2024/01/07 10:54:33;;;;;;;4.07;2.80;;;0.20;99.90;;;;;;5085666;28;20530;-79
2024/01/07 10:57:05;;;;;;;3.27;3.00;;;0.30;99.90;;;;;;5085669;28;20593;-78
2024/01/07 10:59:34;;;;;;;3.60;2.80;;;0.30;99.90;;;;;;5085533;28;20290;-78
2024/01/07 11:02:03;;;;;;;2.90;2.70;;;0.20;99.90;;;;;;5085486;28;20864;-80
2024/01/07 11:04:38;;;;;;;2.97;2.77;;;0.30;99.90;;;;;;5089239;28;20217;-77
2024/01/07 11:07:20;;;;;;;3.30;2.50;;;0.20;99.90;;;;;;5089113;28;20738;-78
2024/01/07 11:09:57;;;;;;;2.97;2.77;;;0.30;99.90;;;;;;5088885;28;20234;-78
2024/01/07 11:12:25;;;;;;;2.97;2.70;;;0.30;99.90;;;;;;5089220;28;20204;-78
2024/01/07 11:14:54;;;;;;;4.40;2.70;;;0.30;99.90;;;;;;5088870;28;20212;-78
2024/01/07 11:17:43;;;;;;;3.27;3.00;;;0.30;99.90;;;;;;5089006;28;20230;-79
2024/01/07 11:20:20;;;;;;;3.43;2.73;;;0.30;99.90;;;;;;5080327;28;20226;-78
2024/01/07 11:22:47;;;;;;;2.60;2.40;;;0.30;99.90;;;;;;5088342;28;20210;-78
2024/01/07 11:25:31;;;;;;;3.10;2.60;;;0.40;99.90;;;;;;5089030;28;20218;-78
2024/01/07 11:28:01;;;;;;;2.87;2.53;;;0.40;99.90;;;;;;5088853;28;20575;-79
2024/01/07 11:30:29;;;;;;;3.40;3.10;;;0.40;99.90;;;;;;5088179;28;20474;-79
2024/01/07 11:32:59;;;;;;;3.53;2.70;;;0.40;99.90;;;;;;5089068;28;20229;-79
2024/01/07 11:35:58;;;;;;;2.30;2.20;;;0.50;99.90;;;;;;5088993;28;20269;-78
2024/01/07 11:38:25;;;;;;;3.00;2.33;;;0.50;99.90;;;;;;5088691;28;20310;-78
2024/01/07 11:40:52;;;;;;;4.77;2.37;;;0.50;99.90;;;;;;5088663;28;20242;-79
2024/01/07 11:43:20;;;;;;;2.60;2.40;;;0.50;99.90;;;;;;5088381;28;20696;-78
2024/01/07 11:45:48;;;;;;;3.07;2.77;;;0.50;99.90;;;;;;5088212;28;20306;-78
2024/01/07 11:48:15;;;;;;;3.60;2.80;;;0.60;99.90;;;;;;5088588;28;20229;-78
2024/01/07 11:50:42;;;;;;;3.30;3.00;;;0.60;99.90;;;;;;5088840;28;20685;-78
2024/01/07 11:53:09;;;;;;;2.90;2.70;;;0.60;99.90;;;;;;5088186;28;20741;-78
2024/01/07 11:55:36;;;;;;;2.67;2.47;;;0.60;99.90;;;;;;5087339;28;20653;-77
2024/01/07 11:58:04;;;;;;;3.03;2.67;;;0.60;99.90;;;;;;5084836;28;20203;-77
2024/01/07 12:00:34;;;;;;;2.43;2.23;;;0.60;99.90;;;;;;5085488;28;20201;-78
2024/01/07 12:03:01;;;;;;;3.10;2.33;;;0.60;99.90;;;;;;5088181;28;20310;-78
2024/01/07 12:05:28;;;;;;;2.43;2.23;;;0.70;99.90;;;;;;5088271;28;20195;-77
2024/01/07 12:07:56;;;;;;;2.20;2.00;;;0.70;99.90;;;;;;5086489;28;20333;-77
2024/01/07 12:10:24;;;;;;;2.20;2.00;;;0.70;99.90;;;;;;5084674;28;20225;-78
2024/01/07 12:12:51;;;;;;;2.57;2.17;;;0.70;99.90;;;;;;5088225;28;20190;-78
2024/01/07 12:15:19;;;;;;;2.93;2.63;;;0.70;99.90;;;;;;5087212;28;20199;-78
2024/01/07 12:17:57;;;;;;;2.20;2.00;;;0.70;99.90;;;;;;5087907;28;20295;-78
2024/01/07 12:20:24;;;;;;;2.00;1.90;;;0.70;99.90;;;;;;5087992;28;20210;-78
2024/01/07 12:22:51;;;;;;;1.83;1.73;;;0.70;99.90;;;;;;5087492;28;20229;-79
2024/01/07 12:25:23;;;;;;;2.43;1.90;;;0.70;99.90;;;;;;5087859;28;20278;-78
2024/01/07 12:27:52;;;;;;;1.60;1.50;;;0.80;99.90;;;;;;5088202;28;20223;-78
2024/01/07 12:30:20;;;;;;;2.73;1.87;;;0.80;99.90;;;;;;5087524;28;20199;-78
2024/01/07 12:32:47;;;;;;;2.17;1.80;;;0.80;99.90;;;;;;5087292;28;20773;-78
2024/01/07 12:35:15;;;;;;;1.53;1.43;;;0.80;99.90;;;;;;5087850;28;20625;-78
2024/01/07 12:37:44;;;;;;;2.73;1.83;;;0.80;99.90;;;;;;5087102;28;20242;-78
2024/01/07 12:40:12;;;;;;;2.00;1.63;;;0.80;99.90;;;;;;5087299;28;20207;-78
2024/01/07 12:42:44;;;;;;;1.87;1.70;;;0.80;99.90;;;;;;5087569;28;20625;-79
2024/01/07 12:45:13;;;;;;;1.73;1.60;;;0.70;99.90;;;;;;5084028;28;20206;-78
2024/01/07 12:47:40;;;;;;;1.50;1.40;;;0.70;99.90;;;;;;5086252;28;20230;-78
2024/01/07 12:50:09;;;;;;;1.70;1.60;;;0.70;99.90;;;;;;5086639;28;20203;-77
2024/01/07 12:52:38;;;;;;;2.80;1.50;;;0.60;99.90;;;;;;5087212;28;20199;-77